METAR stanice u blizini

 

LYBE - Beograd / Surčin, Srbija
Ažurirano: 03/07/2022 03:30
Vedro
Vedro
 Pravac vetra J
Vetar: J 9 km/h
Temperatura: 21°C
Tačka rose: 18°C
Vlažnost: 83%
Pritisak: 1018 hPa
Pregled: Vedro
Vidljivost: greater than 10 km
2022/07/03 01:30 LYBE 030130Z 18005KT CAVOK 21/18 Q1018 NOSIG
LYBT - Beograd / Batajnica, Srbija
Ažurirano: 03/07/2022 03:30
Vedro
Vedro
 Pravac vetra JJI
Vetar: JJI 7 km/h
Temperatura: 19°C
Tačka rose: 19°C
Vlažnost: 100%
Pritisak: 1018 hPa
Pregled: Vedro
Vidljivost: greater than 10 km
2022/07/03 01:30 LYBT 030130Z 16004KT 130V210 CAVOK 19/19 Q1018 NOSIG
LYVR - Vršac, Srbija
Ažurirano: 03/07/2022 03:30
Vedro
Vedro
 Pravac vetra J
Vetar: J 9 km/h
Temperatura: 23°C
Tačka rose: 18°C
Vlažnost: 74%
Pritisak: 1017 hPa
Pregled: Vedro
Vidljivost: greater than 10 km
2022/07/03 01:30 LYVR 030130Z AUTO 17005KT 150V220 CAVOK 23/18 Q1017
 
LYKV - Lađevci, Srbija
Ažurirano: 03/07/2022 03:30
Vedro
Vedro
 Pravac vetra Z
Vetar: Z 2 km/h
Temperatura: 18°C
Tačka rose: 17°C
Vlažnost: 94%
Pritisak: 1019 hPa
Pregled: Vedro
Vidljivost: greater than 10 km
2022/07/03 01:30 LYKV 030130Z 26001KT CAVOK 18/17 Q1019 NOSIG
LYNI - Niš, Srbija
Ažurirano: 03/07/2022 03:30
Vedro
Vedro
 Pravac vetra SSZ
Vetar: SSZ 6 km/h
Temperatura: 19°C
Tačka rose: 17°C
Vlažnost: 88%
Pritisak: 1019 hPa
Pregled: Vedro
Vidljivost: greater than 10 km
2022/07/03 01:30 LYNI 030130Z 34003KT CAVOK 19/17 Q1019 NOSIG
BKPR - Priština, Srbija
Ažurirano: 03/07/2022 04:00
Vedro
Vedro
 Pravac vetra varies
Vetar: varies 2 km/h
Temperatura: 17°C
Tačka rose: 15°C
Vlažnost: 88%
Pritisak: 1020 hPa
Pregled: Vedro
Vidljivost: greater than 10 km
2022/07/03 02:00 BKPR 030200Z VRB01KT CAVOK 17/15 Q1020 NOSIG
 
LHPP - Pecs / Pogany, Hungary
Ažurirano: 03/07/2022 03:15
Vedro
Vedro
 Pravac vetra S
Vetar: S 9 km/h
Temperatura: 21°C
Tačka rose: 12°C
Vlažnost: 57%
Pritisak: 1019 hPa
Pregled: Vedro
Vidljivost: greater than 10 km
2022/07/03 01:15 LHPP 030115Z AUTO 01005KT CAVOK 21/12 Q1019
LHUD - Szeged, Hungary
Ažurirano: 04/07/2019 01:45
NOT Current
Vedro
Vedro
 Pravac vetra S
Vetar: S 7 km/h
Temperatura: 18°C
Tačka rose: 13°C
Vlažnost: 73%
Pritisak: 1019 hPa
Pregled: Vedro
Vidljivost: greater than 10 km
2019/07/03 23:45 LHUD 032345Z 35004KT CAVOK 18/13 Q1019
LRTR - Timisoara, Romania
Ažurirano: 03/07/2022 03:30
Vedro
Vedro
 Pravac vetra IJI
Vetar: IJI 7 km/h
Temperatura: 20°C
Tačka rose: 18°C
Vlažnost: 88%
Pritisak: 1017 hPa
Pregled: Vedro
Vidljivost: greater than 10 km
2022/07/03 01:30 LRTR 030130Z 12004KT CAVOK 20/18 Q1017 NOSIG
 
LRCV - Craiova, Romania
Ažurirano: 03/07/2022 03:30
Partly Cloudy
Partly Cloudy
 Pravac vetra ZSZ
Vetar: ZSZ 6 km/h
Temperatura: 20°C
Tačka rose: 19°C
Vlažnost: 94%
Pritisak: 1018 hPa
Oblaci: Partly Cloudy
Vidljivost: 6 km
2022/07/03 01:30 LRCV 030130Z 29003KT 250V310 6000 NSC 20/19 Q1018
LBSF - Sofia, Bulgaria
Ažurirano: 03/07/2022 03:30
Vedro
Vedro
 Pravac vetra JJI
Vetar: JJI 6 km/h
Temperatura: 18°C
Tačka rose: 15°C
Vlažnost: 83%
Pritisak: 1021 hPa
Oblaci: Vedro
Vidljivost: 10 km
2022/07/03 01:30 LBSF 030130Z AUTO 16003KT 130V210 9999 NCD 18/15 Q1021 NOSIG
LWSK - Skoplje, Makedonija
Ažurirano: 03/07/2022 03:30
Vedro
Vedro
 Pravac vetra varies
Vetar: varies 2 km/h
Temperatura: 20°C
Tačka rose: 17°C
Vlažnost: 83%
Pritisak: 1019 hPa
Pregled: Vedro
Vidljivost: greater than 10 km
2022/07/03 01:30 LWSK 030130Z VRB01KT CAVOK 20/17 Q1019 NOSIG
 
LYPG - Podgorica, Crna Gora
Ažurirano: 03/07/2022 03:30
Vedro
Vedro
 Pravac vetra SSZ
Vetar: SSZ 4 km/h
Temperatura: 25°C
Tačka rose: 14°C
Vlažnost: 51%
Pritisak: 1015 hPa
Pregled: Vedro
Vidljivost: greater than 10 km
2022/07/03 01:30 LYPG 030130Z 33002KT CAVOK 25/14 Q1015 NOSIG
LQSA - Sarajevo, Bosna i Hercegovina
Ažurirano: 03/07/2022 03:00
Vedro
Vedro
 Pravac vetra varies
Vetar: varies 2 km/h
Temperatura: 19°C
Tačka rose: 16°C
Vlažnost: 83%
Pritisak: 1021 hPa
Pregled: Vedro
Vidljivost: greater than 10 km
2022/07/03 01:00 LQSA 030100Z VRB01KT CAVOK 19/16 Q1021
LDOS - Osijek, Hrvatksa
Ažurirano: 03/07/2022 03:30
Vedro
Vedro
 Pravac vetra ZSZ
Vetar: ZSZ 9 km/h
Temperatura: 17°C
Tačka rose: 16°C
Vlažnost: 94%
Pritisak: 1018 hPa
Pregled: Vedro
Vidljivost: greater than 10 km
2022/07/03 01:30 LDOS 030130Z 30005KT CAVOK 17/16 Q1018